Southwest Madison, Pennsylvania
Current Conditions -  °F | °C
As of 1:56 AM on Friday 28 Nov 2014 (Local Time) from KCXY Reporting Station
Broken Clouds Broken Clouds  
Wind Chill: 25°   Ceiling: 4000
Heat Index: 33°   Visibility: 10mi
Dew Point: 22°   Wind: 9mph
Humidity: 64%   Direction: 290°WNW
Pressure: 30.15"   Gusts: NA
Location:  40.3674°N, 77.4381°W
Report Text: KCXY 280656Z AUTO 29008KT 10SM BKN040 01/M06 A3015 RMK AO2 SLP215 T00061056
Loading
Personal Weather Stations






























Interactive Weather Map New forecast layout! Learn more

10-Day Weather Forecast

Advertisements
Track Severe Weather on mobile